LICR Airport Information

Runway Information
Runway 11 Length 5574 ft width 148 ft Elevation 38 ft Threshold N/A Heading 113
Runway 29 Length 5574 ft Width 148 ft Elevation 43 ft Threshold N/A Heading 293
Runway 15 Length 6549 ft width 148 ft Elevation 84 ft Threshold 840 ft Heading 153
Runway 33 Length 6549 ft Width 148 ft Elevation 34 ft Threshold 164 ft Heading 333
Airport Frequencies
Type APP Name APP Frequency 120.275 MHZ
Type TWR Name TWR Frequency 118.25 MHZ
Airport Navaids
Type VOR-DME Name Reggio Calabria Frequency 111000 KHZ
Type NDB Name Reggio Calabria Frequency 325 KHZ
Airport Weather Information & NOTAM
ADDS - METARS form results

(0346 UTC 05 December 2022)
Data provider http://aviationweather.gov/metar/data/
 
METAR text: LICR 050320Z AUTO 06006KT 9999 FEW028/// 12/09 Q1021
Conditions at: LICR (REGGIO CALABRIA , IT) observed 0320 UTC 05 December 2022
Temperature: 12.0°C (54°F)
Dewpoint: 9.0°C (48°F) [RH = 82%]
Pressure (altimeter): 30.15 inches Hg (1021.0 mb)
Winds: from the ENE (60 degrees) at 7 MPH (6 knots; 3.1 m/s)
Visibility: 6 or more miles (10+ km)
Ceiling: at least 12,000 feet AGL
Clouds: few clouds at 2800 feet AGL
Weather: no significant weather observed at this time

METAR text: LICR 050250Z AUTO 06006KT 9999 SCT028/// 13/10 Q1021
Conditions at: LICR (REGGIO CALABRIA , IT) observed 0250 UTC 05 December 2022
Temperature: 13.0°C (55°F)
Dewpoint: 10.0°C (50°F) [RH = 82%]
Pressure (altimeter): 30.15 inches Hg (1021.0 mb)
Winds: from the ENE (60 degrees) at 7 MPH (6 knots; 3.1 m/s)
Visibility: 6 or more miles (10+ km)
Ceiling: at least 12,000 feet AGL
Clouds: scattered clouds at 2800 feet AGL
Weather: no significant weather observed at this time

Forecast for: LICR (REGGIO CALABRIA , IT)
Text: TAF LICR 042300Z 0500/0524 18010KT CAVOK
Forecast period: 0000 UTC 05 December 2022 to 0000 UTC 06 December 2022
Forecast type: FROM: standard forecast or significant change
Winds: from the S (180 degrees) at 12 MPH (10 knots; 5.1 m/s)
Visibility: 6 or more miles (10+ km)
Ceiling: unknown
Clouds: missing
Weather: NSW  (no significant weather)